sensor_id;sensor_type;location;lat;lon;timestamp;pressure;altitude;pressure_sealevel;temperature;humidity
12594;BME280;6362;50.208;9.182;2022-07-01T00:00:25;99745.06;;;17.73;100.00
12594;BME280;6362;50.208;9.182;2022-07-01T00:02:50;99733.16;;;17.67;100.00
12594;BME280;6362;50.208;9.182;2022-07-01T00:05:15;99738.88;;;17.80;100.00
12594;BME280;6362;50.208;9.182;2022-07-01T00:07:41;99745.72;;;17.84;100.00
12594;BME280;6362;50.208;9.182;2022-07-01T00:10:07;99745.63;;;17.89;100.00
12594;BME280;6362;50.208;9.182;2022-07-01T00:12:32;99748.28;;;17.86;100.00
12594;BME280;6362;50.208;9.182;2022-07-01T00:14:58;99746.44;;;17.91;100.00
12594;BME280;6362;50.208;9.182;2022-07-01T00:17:23;99750.66;;;17.95;100.00
12594;BME280;6362;50.208;9.182;2022-07-01T00:19:48;99752.41;;;17.95;100.00
12594;BME280;6362;50.208;9.182;2022-07-01T00:22:16;99751.56;;;17.93;100.00
12594;BME280;6362;50.208;9.182;2022-07-01T00:24:42;99757.44;;;17.99;100.00
12594;BME280;6362;50.208;9.182;2022-07-01T00:27:07;99766.81;;;18.03;100.00
12594;BME280;6362;50.208;9.182;2022-07-01T00:29:32;99768.66;;;17.97;100.00
12594;BME280;6362;50.208;9.182;2022-07-01T00:31:59;99765.97;;;18.03;100.00
12594;BME280;6362;50.208;9.182;2022-07-01T00:34:24;99782.28;;;18.03;100.00
12594;BME280;6362;50.208;9.182;2022-07-01T00:36:50;99786.41;;;18.12;100.00
12594;BME280;6362;50.208;9.182;2022-07-01T00:39:15;99781.31;;;18.10;100.00
12594;BME280;6362;50.208;9.182;2022-07-01T00:41:41;99776.28;;;18.03;100.00
12594;BME280;6362;50.208;9.182;2022-07-01T00:44:15;99786.59;;;18.03;100.00
12594;BME280;6362;50.208;9.182;2022-07-01T00:46:41;99799.63;;;17.97;100.00
12594;BME280;6362;50.208;9.182;2022-07-01T00:49:06;99793.63;;;17.96;100.00
12594;BME280;6362;50.208;9.182;2022-07-01T00:51:32;99795.34;;;17.97;100.00
12594;BME280;6362;50.208;9.182;2022-07-01T00:53:58;99797.00;;;18.00;100.00
12594;BME280;6362;50.208;9.182;2022-07-01T00:56:24;99790.22;;;17.96;100.00
12594;BME280;6362;50.208;9.182;2022-07-01T00:58:50;99789.41;;;17.92;100.00
12594;BME280;6362;50.208;9.182;2022-07-01T01:01:15;99783.41;;;17.92;100.00
12594;BME280;6362;50.208;9.182;2022-07-01T01:03:41;99775.75;;;17.87;100.00
12594;BME280;6362;50.208;9.182;2022-07-01T01:06:08;99778.31;;;17.88;100.00
12594;BME280;6362;50.208;9.182;2022-07-01T01:08:34;99781.00;;;17.81;100.00
12594;BME280;6362;50.208;9.182;2022-07-01T01:11:00;99769.06;;;17.77;100.00
12594;BME280;6362;50.208;9.182;2022-07-01T01:13:26;99781.06;;;17.79;100.00
12594;BME280;6362;50.208;9.182;2022-07-01T01:15:51;99780.25;;;17.77;100.00
12594;BME280;6362;50.208;9.182;2022-07-01T01:18:17;99794.91;;;17.75;100.00
12594;BME280;6362;50.208;9.182;2022-07-01T01:20:42;99800.88;;;17.77;100.00
12594;BME280;6362;50.208;9.182;2022-07-01T01:23:08;99810.31;;;17.78;100.00
12594;BME280;6362;50.208;9.182;2022-07-01T01:25:34;99812.13;;;17.75;100.00
12594;BME280;6362;50.208;9.182;2022-07-01T01:28:02;99820.78;;;17.71;100.00
12594;BME280;6362;50.208;9.182;2022-07-01T01:30:28;99815.63;;;17.71;100.00
12594;BME280;6362;50.208;9.182;2022-07-01T01:32:54;99809.00;;;17.59;100.00
12594;BME280;6362;50.208;9.182;2022-07-01T01:35:20;99813.41;;;17.52;100.00
12594;BME280;6362;50.208;9.182;2022-07-01T01:37:45;99808.28;;;17.51;100.00
12594;BME280;6362;50.208;9.182;2022-07-01T01:40:12;99809.19;;;17.48;100.00
12594;BME280;6362;50.208;9.182;2022-07-01T01:42:39;99809.22;;;17.45;100.00
12594;BME280;6362;50.208;9.182;2022-07-01T01:45:05;99807.72;;;17.35;100.00
12594;BME280;6362;50.208;9.182;2022-07-01T01:47:31;99821.84;;;17.12;100.00
12594;BME280;6362;50.208;9.182;2022-07-01T01:49:57;99827.84;;;17.13;100.00
12594;BME280;6362;50.208;9.182;2022-07-01T01:52:23;99822.00;;;17.04;100.00
12594;BME280;6362;50.208;9.182;2022-07-01T01:54:48;99827.25;;;16.98;100.00
12594;BME280;6362;50.208;9.182;2022-07-01T01:57:13;99843.53;;;17.00;100.00
12594;BME280;6362;50.208;9.182;2022-07-01T01:59:39;99841.81;;;17.01;100.00
12594;BME280;6362;50.208;9.182;2022-07-01T02:02:05;99840.16;;;16.95;100.00
12594;BME280;6362;50.208;9.182;2022-07-01T02:04:30;99838.66;;;16.79;100.00
12594;BME280;6362;50.208;9.182;2022-07-01T02:06:56;99843.13;;;16.68;100.00
12594;BME280;6362;50.208;9.182;2022-07-01T02:09:22;99845.03;;;16.56;100.00
12594;BME280;6362;50.208;9.182;2022-07-01T02:11:48;99830.38;;;16.60;100.00
12594;BME280;6362;50.208;9.182;2022-07-01T02:14:13;99824.31;;;16.64;100.00
12594;BME280;6362;50.208;9.182;2022-07-01T02:16:39;99823.50;;;16.60;100.00
12594;BME280;6362;50.208;9.182;2022-07-01T02:19:04;99827.00;;;16.56;100.00
12594;BME280;6362;50.208;9.182;2022-07-01T02:21:29;99831.34;;;16.53;100.00
12594;BME280;6362;50.208;9.182;2022-07-01T02:23:55;99832.97;;;16.58;100.00
12594;BME280;6362;50.208;9.182;2022-07-01T02:26:21;99828.78;;;16.53;100.00
12594;BME280;6362;50.208;9.182;2022-07-01T02:28:46;99842.66;;;16.41;100.00
12594;BME280;6362;50.208;9.182;2022-07-01T02:31:12;99846.13;;;16.38;100.00
12594;BME280;6362;50.208;9.182;2022-07-01T02:33:37;99845.34;;;16.35;100.00
12594;BME280;6362;50.208;9.182;2022-07-01T02:36:03;99843.63;;;16.32;100.00
12594;BME280;6362;50.208;9.182;2022-07-01T02:38:29;99846.25;;;16.29;100.00
12594;BME280;6362;50.208;9.182;2022-07-01T02:40:54;99836.94;;;16.20;100.00
12594;BME280;6362;50.208;9.182;2022-07-01T02:43:20;99829.06;;;16.31;100.00
12594;BME280;6362;50.208;9.182;2022-07-01T02:45:45;99816.06;;;16.39;100.00
12594;BME280;6362;50.208;9.182;2022-07-01T02:48:10;99802.31;;;16.43;100.00
12594;BME280;6362;50.208;9.182;2022-07-01T02:50:36;99799.72;;;16.44;100.00
12594;BME280;6362;50.208;9.182;2022-07-01T02:53:01;99798.91;;;16.41;100.00
12594;BME280;6362;50.208;9.182;2022-07-01T02:55:27;99787.06;;;16.29;100.00
12594;BME280;6362;50.208;9.182;2022-07-01T02:57:54;99785.47;;;16.20;100.00
12594;BME280;6362;50.208;9.182;2022-07-01T03:00:20;99781.50;;;15.96;100.00
12594;BME280;6362;50.208;9.182;2022-07-01T03:02:46;99793.69;;;15.80;100.00
12594;BME280;6362;50.208;9.182;2022-07-01T03:05:12;99796.34;;;15.74;100.00
12594;BME280;6362;50.208;9.182;2022-07-01T03:07:40;99800.75;;;15.60;100.00
12594;BME280;6362;50.208;9.182;2022-07-01T03:10:07;99793.91;;;15.60;100.00
12594;BME280;6362;50.208;9.182;2022-07-01T03:12:33;99793.88;;;15.62;100.00
12594;BME280;6362;50.208;9.182;2022-07-01T03:15:12;99795.66;;;15.57;100.00
12594;BME280;6362;50.208;9.182;2022-07-01T03:17:44;99799.16;;;15.50;100.00
12594;BME280;6362;50.208;9.182;2022-07-01T03:20:15;99784.47;;;15.59;100.00
12594;BME280;6362;50.208;9.182;2022-07-01T03:22:42;99789.56;;;15.66;100.00
12594;BME280;6362;50.208;9.182;2022-07-01T03:25:08;99790.31;;;15.78;100.00
12594;BME280;6362;50.208;9.182;2022-07-01T03:27:34;99783.38;;;15.85;100.00
12594;BME280;6362;50.208;9.182;2022-07-01T03:30:00;99782.50;;;15.86;100.00
12594;BME280;6362;50.208;9.182;2022-07-01T03:32:25;99791.22;;;15.73;100.00
12594;BME280;6362;50.208;9.182;2022-07-01T03:34:53;99796.31;;;15.79;100.00
12594;BME280;6362;50.208;9.182;2022-07-01T03:37:19;99801.50;;;15.71;100.00
12594;BME280;6362;50.208;9.182;2022-07-01T03:39:46;99792.97;;;15.68;100.00
12594;BME280;6362;50.208;9.182;2022-07-01T03:42:12;99798.03;;;15.77;100.00
12594;BME280;6362;50.208;9.182;2022-07-01T03:44:38;99795.53;;;15.68;100.00
12594;BME280;6362;50.208;9.182;2022-07-01T03:47:04;99808.38;;;15.72;100.00
12594;BME280;6362;50.208;9.182;2022-07-01T03:49:34;99801.44;;;15.79;100.00
12594;BME280;6362;50.208;9.182;2022-07-01T03:51:59;99806.56;;;15.80;100.00
12594;BME280;6362;50.208;9.182;2022-07-01T03:54:24;99813.47;;;15.78;100.00
12594;BME280;6362;50.208;9.182;2022-07-01T03:57:01;99810.94;;;15.69;100.00
12594;BME280;6362;50.208;9.182;2022-07-01T03:59:28;99815.19;;;15.76;100.00
12594;BME280;6362;50.208;9.182;2022-07-01T04:01:54;99826.34;;;15.69;100.00
12594;BME280;6362;50.208;9.182;2022-07-01T04:04:20;99832.38;;;15.70;100.00
12594;BME280;6362;50.208;9.182;2022-07-01T04:06:46;99840.25;;;15.56;100.00
12594;BME280;6362;50.208;9.182;2022-07-01T04:09:12;99842.72;;;15.62;100.00
12594;BME280;6362;50.208;9.182;2022-07-01T04:11:40;99850.38;;;15.73;100.00
12594;BME280;6362;50.208;9.182;2022-07-01T04:14:06;99858.09;;;15.67;100.00
12594;BME280;6362;50.208;9.182;2022-07-01T04:16:32;99871.09;;;15.54;100.00
12594;BME280;6362;50.208;9.182;2022-07-01T04:18:57;99876.19;;;15.59;100.00
12594;BME280;6362;50.208;9.182;2022-07-01T04:21:23;99886.38;;;15.73;100.00
12594;BME280;6362;50.208;9.182;2022-07-01T04:24:07;99881.13;;;15.82;100.00
12594;BME280;6362;50.208;9.182;2022-07-01T04:26:33;99898.28;;;15.83;100.00
12594;BME280;6362;50.208;9.182;2022-07-01T04:28:58;99897.50;;;15.75;100.00
12594;BME280;6362;50.208;9.182;2022-07-01T04:31:24;99894.88;;;15.81;100.00
12594;BME280;6362;50.208;9.182;2022-07-01T04:33:49;99898.31;;;15.78;100.00
12594;BME280;6362;50.208;9.182;2022-07-01T04:36:15;99899.06;;;15.88;100.00
12594;BME280;6362;50.208;9.182;2022-07-01T04:38:41;99910.22;;;15.89;100.00
12594;BME280;6362;50.208;9.182;2022-07-01T04:41:06;99905.94;;;15.86;100.00
12594;BME280;6362;50.208;9.182;2022-07-01T04:43:50;99916.25;;;15.85;100.00
12594;BME280;6362;50.208;9.182;2022-07-01T04:46:16;99914.34;;;16.03;100.00
12594;BME280;6362;50.208;9.182;2022-07-01T04:48:42;99912.78;;;15.90;100.00
12594;BME280;6362;50.208;9.182;2022-07-01T04:51:08;99917.13;;;15.85;100.00
12594;BME280;6362;50.208;9.182;2022-07-01T04:53:33;99923.91;;;15.92;100.00
12594;BME280;6362;50.208;9.182;2022-07-01T04:55:59;99928.06;;;16.04;100.00
12594;BME280;6362;50.208;9.182;2022-07-01T04:58:24;99928.16;;;15.95;100.00
12594;BME280;6362;50.208;9.182;2022-07-01T05:00:51;99923.69;;;16.09;100.00
12594;BME280;6362;50.208;9.182;2022-07-01T05:03:16;99919.50;;;16.00;100.00
12594;BME280;6362;50.208;9.182;2022-07-01T05:05:42;99928.00;;;16.09;100.00
12594;BME280;6362;50.208;9.182;2022-07-01T05:08:08;99943.50;;;16.04;100.00
12594;BME280;6362;50.208;9.182;2022-07-01T05:10:33;99964.03;;;16.10;100.00
12594;BME280;6362;50.208;9.182;2022-07-01T05:12:59;99971.69;;;16.15;100.00
12594;BME280;6362;50.208;9.182;2022-07-01T05:15:24;99973.28;;;16.27;100.00
12594;BME280;6362;50.208;9.182;2022-07-01T05:17:49;99973.38;;;16.19;100.00
12594;BME280;6362;50.208;9.182;2022-07-01T05:20:33;99977.69;;;16.15;100.00
12594;BME280;6362;50.208;9.182;2022-07-01T05:23:17;99963.81;;;16.27;100.00
12594;BME280;6362;50.208;9.182;2022-07-01T05:25:43;99969.84;;;16.26;100.00
12594;BME280;6362;50.208;9.182;2022-07-01T05:28:08;99967.22;;;16.29;100.00
12594;BME280;6362;50.208;9.182;2022-07-01T05:30:33;99961.19;;;16.35;100.00
12594;BME280;6362;50.208;9.182;2022-07-01T05:32:59;99961.84;;;16.49;100.00
12594;BME280;6362;50.208;9.182;2022-07-01T05:35:25;99963.56;;;16.49;100.00
12594;BME280;6362;50.208;9.182;2022-07-01T05:37:51;99961.81;;;16.52;100.00
12594;BME280;6362;50.208;9.182;2022-07-01T05:40:16;99965.47;;;16.33;100.00
12594;BME280;6362;50.208;9.182;2022-07-01T05:42:41;99973.81;;;16.53;100.00
12594;BME280;6362;50.208;9.182;2022-07-01T05:45:07;99968.47;;;16.69;100.00
12594;BME280;6362;50.208;9.182;2022-07-01T05:47:33;99984.00;;;16.64;100.00
12594;BME280;6362;50.208;9.182;2022-07-01T05:49:58;99976.34;;;16.56;100.00
12594;BME280;6362;50.208;9.182;2022-07-01T05:52:23;99979.00;;;16.50;100.00
12594;BME280;6362;50.208;9.182;2022-07-01T05:54:49;99987.75;;;16.35;100.00
12594;BME280;6362;50.208;9.182;2022-07-01T05:57:14;99985.03;;;16.48;100.00
12594;BME280;6362;50.208;9.182;2022-07-01T05:59:40;99975.56;;;16.53;100.00
12594;BME280;6362;50.208;9.182;2022-07-01T06:02:06;99980.47;;;16.68;100.00
12594;BME280;6362;50.208;9.182;2022-07-01T06:04:31;99983.94;;;16.67;100.00
12594;BME280;6362;50.208;9.182;2022-07-01T06:06:57;99998.63;;;16.59;100.00
12594;BME280;6362;50.208;9.182;2022-07-01T06:09:22;99995.25;;;16.54;100.00
12594;BME280;6362;50.208;9.182;2022-07-01T06:11:48;99985.06;;;16.44;100.00
12594;BME280;6362;50.208;9.182;2022-07-01T06:14:13;100001.47;;;16.37;100.00
12594;BME280;6362;50.208;9.182;2022-07-01T06:16:39;99998.06;;;16.32;100.00
12594;BME280;6362;50.208;9.182;2022-07-01T06:19:05;99984.34;;;16.35;100.00
12594;BME280;6362;50.208;9.182;2022-07-01T06:21:32;99990.44;;;16.26;100.00
12594;BME280;6362;50.208;9.182;2022-07-01T06:23:57;99989.44;;;16.39;100.00
12594;BME280;6362;50.208;9.182;2022-07-01T06:26:23;99987.50;;;16.57;100.00
12594;BME280;6362;50.208;9.182;2022-07-01T06:28:49;99986.69;;;16.53;100.00
12594;BME280;6362;50.208;9.182;2022-07-01T06:31:14;99996.00;;;16.63;100.00
12594;BME280;6362;50.208;9.182;2022-07-01T06:33:39;99996.06;;;16.59;100.00
12594;BME280;6362;50.208;9.182;2022-07-01T06:36:05;99997.66;;;16.71;100.00
12594;BME280;6362;50.208;9.182;2022-07-01T06:38:31;99994.97;;;16.80;100.00
12594;BME280;6362;50.208;9.182;2022-07-01T06:40:57;99989.94;;;16.69;100.00
12594;BME280;6362;50.208;9.182;2022-07-01T06:43:41;99993.28;;;16.74;100.00
12594;BME280;6362;50.208;9.182;2022-07-01T06:46:07;99989.84;;;16.75;100.00
12594;BME280;6362;50.208;9.182;2022-07-01T06:48:32;99988.91;;;16.84;100.00
12594;BME280;6362;50.208;9.182;2022-07-01T06:50:58;99984.50;;;16.91;100.00
12594;BME280;6362;50.208;9.182;2022-07-01T06:53:23;99985.28;;;16.99;100.00
12594;BME280;6362;50.208;9.182;2022-07-01T06:55:48;99987.84;;;16.97;100.00
12594;BME280;6362;50.208;9.182;2022-07-01T06:58:14;99985.28;;;16.97;100.00
12594;BME280;6362;50.208;9.182;2022-07-01T07:00:39;99997.50;;;16.84;100.00
12594;BME280;6362;50.208;9.182;2022-07-01T07:03:05;99992.38;;;16.81;100.00
12594;BME280;6362;50.208;9.182;2022-07-01T07:05:30;99992.44;;;16.74;100.00
12594;BME280;6362;50.208;9.182;2022-07-01T07:07:56;100002.75;;;16.74;100.00
12594;BME280;6362;50.208;9.182;2022-07-01T07:10:22;100008.84;;;16.67;100.00
12594;BME280;6362;50.208;9.182;2022-07-01T07:12:48;100010.72;;;16.55;100.00
12594;BME280;6362;50.208;9.182;2022-07-01T07:15:13;100008.97;;;16.57;100.00
12594;BME280;6362;50.208;9.182;2022-07-01T07:17:39;100014.13;;;16.56;100.00
12594;BME280;6362;50.208;9.182;2022-07-01T07:20:05;100021.75;;;16.65;100.00
12594;BME280;6362;50.208;9.182;2022-07-01T07:22:30;100024.28;;;16.68;100.00
12594;BME280;6362;50.208;9.182;2022-07-01T07:24:56;100016.47;;;16.76;100.00
12594;BME280;6362;50.208;9.182;2022-07-01T07:27:21;100019.94;;;16.73;100.00
12594;BME280;6362;50.208;9.182;2022-07-01T07:29:46;100025.03;;;16.78;100.00
12594;BME280;6362;50.208;9.182;2022-07-01T07:32:12;100029.13;;;16.96;100.00
12594;BME280;6362;50.208;9.182;2022-07-01T07:34:38;100034.31;;;16.93;100.00
12594;BME280;6362;50.208;9.182;2022-07-01T07:37:03;100040.41;;;16.87;100.00
12594;BME280;6362;50.208;9.182;2022-07-01T07:39:29;100041.19;;;16.92;100.00
12594;BME280;6362;50.208;9.182;2022-07-01T07:41:54;100054.25;;;16.75;100.00
12594;BME280;6362;50.208;9.182;2022-07-01T07:44:19;100062.00;;;16.72;100.00
12594;BME280;6362;50.208;9.182;2022-07-01T07:46:45;100054.38;;;16.61;100.00
12594;BME280;6362;50.208;9.182;2022-07-01T07:49:10;100060.63;;;16.42;100.00
12594;BME280;6362;50.208;9.182;2022-07-01T07:51:35;100070.19;;;16.28;100.00
12594;BME280;6362;50.208;9.182;2022-07-01T07:54:01;100081.50;;;16.10;100.00
12594;BME280;6362;50.208;9.182;2022-07-01T07:56:28;100079.06;;;15.99;100.00
12594;BME280;6362;50.208;9.182;2022-07-01T07:58:54;100078.28;;;15.88;100.00
12594;BME280;6362;50.208;9.182;2022-07-01T08:01:19;100082.59;;;15.84;100.00
12594;BME280;6362;50.208;9.182;2022-07-01T08:03:45;100087.78;;;15.81;100.00
12594;BME280;6362;50.208;9.182;2022-07-01T08:06:10;100090.31;;;15.82;100.00
12594;BME280;6362;50.208;9.182;2022-07-01T08:08:36;100086.88;;;15.80;100.00
12594;BME280;6362;50.208;9.182;2022-07-01T08:11:02;100083.47;;;15.83;100.00
12594;BME280;6362;50.208;9.182;2022-07-01T08:13:28;100081.75;;;15.84;100.00
12594;BME280;6362;50.208;9.182;2022-07-01T08:15:54;100086.91;;;15.79;100.00
12594;BME280;6362;50.208;9.182;2022-07-01T08:18:20;100093.78;;;15.77;100.00
12594;BME280;6362;50.208;9.182;2022-07-01T08:20:45;100085.22;;;15.75;100.00
12594;BME280;6362;50.208;9.182;2022-07-01T08:23:12;100080.09;;;15.76;100.00
12594;BME280;6362;50.208;9.182;2022-07-01T08:25:37;100086.97;;;15.71;100.00
12594;BME280;6362;50.208;9.182;2022-07-01T08:28:03;100092.06;;;15.76;100.00
12594;BME280;6362;50.208;9.182;2022-07-01T08:30:29;100093.78;;;15.78;100.00
12594;BME280;6362;50.208;9.182;2022-07-01T08:32:54;100098.06;;;15.79;100.00
12594;BME280;6362;50.208;9.182;2022-07-01T08:35:20;100092.91;;;15.79;100.00
12594;BME280;6362;50.208;9.182;2022-07-01T08:37:45;100092.06;;;15.77;100.00
12594;BME280;6362;50.208;9.182;2022-07-01T08:40:11;100097.19;;;15.82;100.00
12594;BME280;6362;50.208;9.182;2022-07-01T08:42:36;100098.88;;;15.88;100.00
12594;BME280;6362;50.208;9.182;2022-07-01T08:45:02;100096.25;;;15.91;100.00
12594;BME280;6362;50.208;9.182;2022-07-01T08:47:27;100102.28;;;15.88;100.00
12594;BME280;6362;50.208;9.182;2022-07-01T08:49:53;100098.81;;;15.92;100.00
12594;BME280;6362;50.208;9.182;2022-07-01T08:52:18;100091.16;;;15.86;100.00
12594;BME280;6362;50.208;9.182;2022-07-01T08:54:44;100078.25;;;15.91;100.00
12594;BME280;6362;50.208;9.182;2022-07-01T08:57:09;100073.16;;;15.88;100.00
12594;BME280;6362;50.208;9.182;2022-07-01T08:59:35;100073.09;;;15.92;100.00
12594;BME280;6362;50.208;9.182;2022-07-01T09:02:03;100071.31;;;16.00;100.00
12594;BME280;6362;50.208;9.182;2022-07-01T09:04:30;100073.00;;;16.03;100.00
12594;BME280;6362;50.208;9.182;2022-07-01T09:07:08;100072.94;;;16.11;100.00
12594;BME280;6362;50.208;9.182;2022-07-01T09:09:38;100091.75;;;16.16;100.00
12594;BME280;6362;50.208;9.182;2022-07-01T09:12:04;100096.00;;;16.20;100.00
12594;BME280;6362;50.208;9.182;2022-07-01T09:14:32;100108.00;;;16.22;100.00
12594;BME280;6362;50.208;9.182;2022-07-01T09:17:05;100115.63;;;16.32;100.00
12594;BME280;6362;50.208;9.182;2022-07-01T09:19:37;100121.53;;;16.44;100.00
12594;BME280;6362;50.208;9.182;2022-07-01T09:22:04;100120.50;;;16.64;100.00
12594;BME280;6362;50.208;9.182;2022-07-01T09:24:35;100120.34;;;16.75;100.00
12594;BME280;6362;50.208;9.182;2022-07-01T09:27:07;100122.84;;;16.85;100.00
12594;BME280;6362;50.208;9.182;2022-07-01T09:29:41;100126.16;;;16.95;100.00
12594;BME280;6362;50.208;9.182;2022-07-01T09:32:09;100127.81;;;17.02;100.00
12594;BME280;6362;50.208;9.182;2022-07-01T09:34:55;100132.16;;;16.99;100.00
12594;BME280;6362;50.208;9.182;2022-07-01T09:37:21;100139.03;;;16.98;100.00
12594;BME280;6362;50.208;9.182;2022-07-01T09:39:48;100139.03;;;16.97;100.00
12594;BME280;6362;50.208;9.182;2022-07-01T09:42:16;100153.53;;;17.07;100.00
12594;BME280;6362;50.208;9.182;2022-07-01T09:44:57;100157.00;;;17.04;100.00
12594;BME280;6362;50.208;9.182;2022-07-01T09:47:24;100157.06;;;16.98;100.00
12594;BME280;6362;50.208;9.182;2022-07-01T09:49:50;100169.09;;;16.98;100.00
12594;BME280;6362;50.208;9.182;2022-07-01T09:52:17;100171.69;;;16.95;100.00
12594;BME280;6362;50.208;9.182;2022-07-01T09:54:44;100159.72;;;16.92;100.00
12594;BME280;6362;50.208;9.182;2022-07-01T09:57:10;100164.81;;;16.97;100.00
12594;BME280;6362;50.208;9.182;2022-07-01T09:59:35;100158.09;;;16.79;100.00
12594;BME280;6362;50.208;9.182;2022-07-01T10:02:02;100167.59;;;16.75;100.00
12594;BME280;6362;50.208;9.182;2022-07-01T10:04:31;100162.41;;;16.77;100.00
12594;BME280;6362;50.208;9.182;2022-07-01T10:12:31;100141.72;;;16.89;100.00
12594;BME280;6362;50.208;9.182;2022-07-01T10:14:58;100152.66;;;17.06;100.00
12594;BME280;6362;50.208;9.182;2022-07-01T10:17:42;100151.88;;;17.03;100.00
12594;BME280;6362;50.208;9.182;2022-07-01T10:20:13;100156.91;;;17.11;100.00
12594;BME280;6362;50.208;9.182;2022-07-01T10:22:40;100154.44;;;17.03;100.00
12594;BME280;6362;50.208;9.182;2022-07-01T10:28:29;100167.56;;;16.77;100.00
12594;BME280;6362;50.208;9.182;2022-07-01T10:31:05;100171.16;;;16.59;100.00
12594;BME280;6362;50.208;9.182;2022-07-01T10:33:58;100177.25;;;16.52;100.00
12594;BME280;6362;50.208;9.182;2022-07-01T10:36:31;100193.59;;;16.49;100.00
12594;BME280;6362;50.208;9.182;2022-07-01T10:41:30;100195.19;;;16.59;100.00
12594;BME280;6362;50.208;9.182;2022-07-01T10:43:56;100196.84;;;16.70;100.00
12594;BME280;6362;50.208;9.182;2022-07-01T10:49:06;100219.06;;;16.83;100.00
12594;BME280;6362;50.208;9.182;2022-07-01T10:51:52;100210.50;;;16.76;100.00
12594;BME280;6362;50.208;9.182;2022-07-01T10:54:54;100193.16;;;16.98;100.00
12594;BME280;6362;50.208;9.182;2022-07-01T10:57:30;100198.25;;;17.01;100.00
12594;BME280;6362;50.208;9.182;2022-07-01T11:02:41;100213.34;;;17.35;100.00
12594;BME280;6362;50.208;9.182;2022-07-01T11:05:12;100214.13;;;17.40;100.00
12594;BME280;6362;50.208;9.182;2022-07-01T11:07:39;100190.13;;;17.35;100.00
12594;BME280;6362;50.208;9.182;2022-07-01T11:10:08;100190.03;;;17.44;100.00
12594;BME280;6362;50.208;9.182;2022-07-01T11:12:35;100195.16;;;17.47;100.00
12594;BME280;6362;50.208;9.182;2022-07-01T11:15:02;100192.97;;;17.80;100.00
12594;BME280;6362;50.208;9.182;2022-07-01T11:17:28;100196.06;;;18.07;100.00
12594;BME280;6362;50.208;9.182;2022-07-01T11:19:57;100214.63;;;18.30;100.00
12594;BME280;6362;50.208;9.182;2022-07-01T11:22:28;100209.31;;;18.41;100.00
12594;BME280;6362;50.208;9.182;2022-07-01T11:25:02;100213.06;;;18.73;100.00
12594;BME280;6362;50.208;9.182;2022-07-01T11:27:29;100216.13;;;18.97;100.00
12594;BME280;6362;50.208;9.182;2022-07-01T11:29:57;100209.00;;;19.09;100.00
12594;BME280;6362;50.208;9.182;2022-07-01T11:32:31;100194.19;;;19.16;100.00
12594;BME280;6362;50.208;9.182;2022-07-01T11:34:57;100205.47;;;19.13;99.42
12594;BME280;6362;50.208;9.182;2022-07-01T11:37:27;100210.72;;;19.09;96.62
12594;BME280;6362;50.208;9.182;2022-07-01T11:40:14;100231.00;;;19.30;100.00
12594;BME280;6362;50.208;9.182;2022-07-01T11:42:42;100217.91;;;19.38;95.93
12594;BME280;6362;50.208;9.182;2022-07-01T11:45:08;100208.34;;;19.43;99.31
12594;BME280;6362;50.208;9.182;2022-07-01T11:47:33;100211.63;;;19.08;93.01
12594;BME280;6362;50.208;9.182;2022-07-01T11:49:59;100207.84;;;19.24;93.81
12594;BME280;6362;50.208;9.182;2022-07-01T11:52:26;100202.59;;;19.29;93.19
12594;BME280;6362;50.208;9.182;2022-07-01T11:54:56;100206.72;;;19.38;91.69
12594;BME280;6362;50.208;9.182;2022-07-01T11:57:26;100202.91;;;19.54;93.80
12594;BME280;6362;50.208;9.182;2022-07-01T11:59:55;100198.75;;;19.89;95.60
12594;BME280;6362;50.208;9.182;2022-07-01T12:02:23;100196.56;;;20.09;90.62
12594;BME280;6362;50.208;9.182;2022-07-01T12:04:50;100190.88;;;20.98;90.40
12594;BME280;6362;50.208;9.182;2022-07-01T12:07:19;100189.41;;;21.80;93.16
12594;BME280;6362;50.208;9.182;2022-07-01T12:09:47;100195.25;;;22.15;74.77
12594;BME280;6362;50.208;9.182;2022-07-01T12:12:20;100188.09;;;23.00;76.74
12594;BME280;6362;50.208;9.182;2022-07-01T12:14:54;100181.34;;;23.19;66.77
12594;BME280;6362;50.208;9.182;2022-07-01T12:17:20;100180.56;;;23.39;68.02
12594;BME280;6362;50.208;9.182;2022-07-01T12:19:47;100163.16;;;23.63;65.99
12594;BME280;6362;50.208;9.182;2022-07-01T12:22:16;100176.09;;;23.66;68.62
12594;BME280;6362;50.208;9.182;2022-07-01T12:24:45;100167.59;;;22.91;69.10
12594;BME280;6362;50.208;9.182;2022-07-01T12:27:11;100170.69;;;22.52;75.36
12594;BME280;6362;50.208;9.182;2022-07-01T12:32:13;100179.09;;;22.05;68.04
12594;BME280;6362;50.208;9.182;2022-07-01T12:34:47;100168.41;;;22.68;66.35
12594;BME280;6362;50.208;9.182;2022-07-01T12:37:16;100178.38;;;22.28;73.29
12594;BME280;6362;50.208;9.182;2022-07-01T12:39:52;100181.16;;;22.74;77.49
12594;BME280;6362;50.208;9.182;2022-07-01T12:44:57;100167.44;;;24.10;58.55
12594;BME280;6362;50.208;9.182;2022-07-01T12:47:28;100173.13;;;24.40;57.98
12594;BME280;6362;50.208;9.182;2022-07-01T12:52:44;100181.97;;;23.26;54.79
12594;BME280;6362;50.208;9.182;2022-07-01T12:55:21;100186.63;;;22.91;58.94
12594;BME280;6362;50.208;9.182;2022-07-01T12:57:51;100184.47;;;22.79;58.55
12594;BME280;6362;50.208;9.182;2022-07-01T13:00:17;100168.69;;;23.32;63.27
12594;BME280;6362;50.208;9.182;2022-07-01T13:02:44;100171.09;;;23.15;63.85
12594;BME280;6362;50.208;9.182;2022-07-01T13:05:09;100177.41;;;23.31;59.96
12594;BME280;6362;50.208;9.182;2022-07-01T13:07:35;100174.22;;;23.92;62.24
12594;BME280;6362;50.208;9.182;2022-07-01T13:10:02;100168.13;;;24.14;59.71
12594;BME280;6362;50.208;9.182;2022-07-01T13:12:28;100159.19;;;24.21;55.86
12594;BME280;6362;50.208;9.182;2022-07-01T13:14:53;100155.47;;;24.26;55.76
12594;BME280;6362;50.208;9.182;2022-07-01T13:17:20;100150.47;;;23.56;55.72
12594;BME280;6362;50.208;9.182;2022-07-01T13:19:47;100146.63;;;23.42;59.94
12594;BME280;6362;50.208;9.182;2022-07-01T13:22:12;100155.22;;;23.21;61.86